createdAt,value
2019-03-01T00:00:58.129Z,6.30
2019-03-01T00:03:28.363Z,5.83
2019-03-01T00:06:00.308Z,6.25
2019-03-01T00:08:32.891Z,6.83
2019-03-01T00:11:05.562Z,6.93
2019-03-01T00:13:37.390Z,6.20
2019-03-01T00:16:10.345Z,6.30
2019-03-01T00:18:42.890Z,6.05
2019-03-01T00:21:15.544Z,6.60
2019-03-01T00:23:48.103Z,6.53
2019-03-01T00:26:21.178Z,6.70
2019-03-01T00:28:53.753Z,6.23
2019-03-01T00:31:29.257Z,7.00
2019-03-01T00:34:01.340Z,7.00
2019-03-01T00:36:33.960Z,7.95
2019-03-01T00:39:06.556Z,7.07
2019-03-01T00:41:39.486Z,6.10
2019-03-01T00:44:11.742Z,6.13
2019-03-01T00:46:41.313Z,7.07
2019-03-01T00:49:11.609Z,7.03
2019-03-01T00:51:41.252Z,5.80
2019-03-01T00:54:11.186Z,6.53
2019-03-01T00:56:40.605Z,6.77
2019-03-01T00:59:10.451Z,6.13
2019-03-01T01:01:40.092Z,6.35
2019-03-01T01:04:09.726Z,6.90
2019-03-01T01:06:39.077Z,6.27
2019-03-01T01:09:08.607Z,7.40
2019-03-01T01:11:38.086Z,6.80
2019-03-01T01:14:07.698Z,7.10
2019-03-01T01:16:37.252Z,6.80
2019-03-01T01:19:06.715Z,6.73
2019-03-01T01:21:36.275Z,6.90
2019-03-01T01:24:05.614Z,6.30
2019-03-01T01:26:35.195Z,6.40
2019-03-01T01:29:04.791Z,6.63
2019-03-01T01:31:34.385Z,6.92
2019-03-01T01:34:04.001Z,6.60
2019-03-01T01:36:33.517Z,6.93
2019-03-01T01:39:03.627Z,6.92
2019-03-01T01:41:33.140Z,6.78
2019-03-01T01:44:02.990Z,6.73
2019-03-01T01:46:32.555Z,6.90
2019-03-01T01:49:02.197Z,7.67
2019-03-01T01:51:31.817Z,7.10
2019-03-01T01:54:01.445Z,6.27
2019-03-01T01:56:30.976Z,6.27
2019-03-01T01:59:00.381Z,7.13
2019-03-01T02:01:29.916Z,6.57
2019-03-01T02:03:58.840Z,6.10
2019-03-01T02:06:28.435Z,6.63
2019-03-01T02:08:57.984Z,6.00
2019-03-01T02:11:27.515Z,5.87
2019-03-01T02:13:57.735Z,5.30
2019-03-01T02:16:27.184Z,5.50
2019-03-01T02:18:57.919Z,5.57
2019-03-01T02:21:27.574Z,5.30
2019-03-01T02:23:57.205Z,5.17
2019-03-01T02:26:26.702Z,5.05
2019-03-01T02:28:56.191Z,4.93
2019-03-01T02:31:25.623Z,4.60
2019-03-01T02:33:55.167Z,4.30
2019-03-01T02:36:24.622Z,5.45
2019-03-01T02:38:54.175Z,4.75
2019-03-01T02:41:23.641Z,4.90
2019-03-01T02:43:53.110Z,4.13
2019-03-01T02:46:22.615Z,4.60
2019-03-01T02:48:52.166Z,3.62
2019-03-01T02:51:21.765Z,4.55
2019-03-01T02:53:52.080Z,4.50
2019-03-01T02:56:21.805Z,4.90
2019-03-01T02:58:51.328Z,3.70
2019-03-01T03:01:21.052Z,5.12
2019-03-01T03:03:50.641Z,5.37
2019-03-01T03:06:21.809Z,4.23
2019-03-01T03:08:51.393Z,4.50
2019-03-01T03:11:21.188Z,4.10
2019-03-01T03:13:50.695Z,4.10
2019-03-01T03:16:20.524Z,3.90
2019-03-01T03:18:50.162Z,4.50
2019-03-01T03:21:19.725Z,4.43
2019-03-01T03:23:49.352Z,4.20
2019-03-01T03:26:18.868Z,5.40
2019-03-01T03:28:48.329Z,4.10
2019-03-01T03:31:17.795Z,4.30
2019-03-01T03:33:47.292Z,4.47
2019-03-01T03:36:16.775Z,4.43
2019-03-01T03:38:46.226Z,4.50
2019-03-01T03:41:15.787Z,5.10
2019-03-01T03:43:45.235Z,4.60
2019-03-01T03:46:14.802Z,5.37
2019-03-01T03:48:44.223Z,4.78
2019-03-01T03:51:13.874Z,4.97
2019-03-01T03:53:43.596Z,5.20
2019-03-01T03:56:13.411Z,5.50
2019-03-01T03:58:42.955Z,6.05
2019-03-01T04:01:12.645Z,6.10
2019-03-01T04:03:42.214Z,5.43
2019-03-01T04:06:12.249Z,6.03
2019-03-01T04:08:41.702Z,7.03
2019-03-01T04:11:11.850Z,6.78
2019-03-01T04:13:41.482Z,6.57
2019-03-01T04:16:11.623Z,6.40
2019-03-01T04:18:41.197Z,7.23
2019-03-01T04:21:11.279Z,6.70
2019-03-01T04:23:40.878Z,7.03
2019-03-01T04:26:11.034Z,6.10
2019-03-01T04:28:40.587Z,7.92
2019-03-01T04:31:10.492Z,6.62
2019-03-01T04:33:40.028Z,7.77
2019-03-01T04:36:10.193Z,6.60
2019-03-01T04:38:39.714Z,5.83
2019-03-01T04:41:09.241Z,7.30
2019-03-01T04:43:38.711Z,7.77
2019-03-01T04:46:08.257Z,7.53
2019-03-01T04:48:37.592Z,7.77
2019-03-01T04:51:07.031Z,7.17
2019-03-01T04:53:36.509Z,7.90
2019-03-01T04:56:06.124Z,7.17
2019-03-01T04:58:35.613Z,8.57
2019-03-01T05:01:05.396Z,7.80
2019-03-01T05:03:35.038Z,8.00
2019-03-01T05:06:04.557Z,7.33
2019-03-01T05:08:34.034Z,8.13
2019-03-01T05:11:03.492Z,7.30
2019-03-01T05:13:32.797Z,6.87
2019-03-01T05:16:02.305Z,7.65
2019-03-01T05:18:31.856Z,7.58
2019-03-01T05:21:01.443Z,12.23
2019-03-01T05:23:31.007Z,10.20
2019-03-01T05:26:00.653Z,11.13
2019-03-01T05:28:30.014Z,9.28
2019-03-01T05:30:59.720Z,7.83
2019-03-01T05:33:29.273Z,8.10
2019-03-01T05:35:58.813Z,7.80
2019-03-01T05:38:28.342Z,8.63
2019-03-01T05:40:57.774Z,7.97
2019-03-01T05:43:27.255Z,9.20
2019-03-01T05:45:57.321Z,12.33
2019-03-01T05:48:26.948Z,9.55
2019-03-01T05:50:56.748Z,9.97
2019-03-01T05:53:26.712Z,8.65
2019-03-01T05:55:55.983Z,8.73
2019-03-01T05:58:28.204Z,8.55
2019-03-01T06:01:00.699Z,9.00
2019-03-01T06:03:33.274Z,9.43
2019-03-01T06:06:03.223Z,8.37
2019-03-01T06:08:35.793Z,9.00
2019-03-01T06:11:09.069Z,8.53
2019-03-01T06:13:41.032Z,7.60
2019-03-01T06:16:12.916Z,9.28
2019-03-01T06:18:45.613Z,7.97
2019-03-01T06:21:20.845Z,7.90
2019-03-01T06:23:53.427Z,9.73
2019-03-01T06:26:26.075Z,8.30
2019-03-01T06:28:57.887Z,8.73
2019-03-01T06:31:30.507Z,9.73
2019-03-01T06:34:04.139Z,9.00
2019-03-01T06:36:38.072Z,9.85
2019-03-01T06:39:12.549Z,8.53
2019-03-01T06:41:44.669Z,8.80
2019-03-01T06:44:19.759Z,8.55
2019-03-01T06:46:54.064Z,7.77
2019-03-01T06:49:25.219Z,9.07
2019-03-01T06:51:55.368Z,7.70
2019-03-01T06:54:24.962Z,8.60
2019-03-01T06:56:54.465Z,8.45
2019-03-01T06:59:23.996Z,9.17
2019-03-01T07:01:53.533Z,8.17
2019-03-01T07:04:23.063Z,8.23
2019-03-01T07:06:52.554Z,8.37
2019-03-01T07:09:22.230Z,6.70
2019-03-01T07:11:51.939Z,7.80
2019-03-01T07:14:21.492Z,7.37
2019-03-01T07:16:51.201Z,8.68
2019-03-01T07:19:20.828Z,8.17
2019-03-01T07:21:50.238Z,8.38
2019-03-01T07:24:19.984Z,8.05
2019-03-01T07:26:49.585Z,7.83
2019-03-01T07:29:19.273Z,7.10
2019-03-01T07:31:48.714Z,7.20
2019-03-01T07:34:18.270Z,7.40
2019-03-01T07:36:47.752Z,7.97
2019-03-01T07:39:17.293Z,6.33
2019-03-01T07:41:46.748Z,6.40
2019-03-01T07:44:16.242Z,7.22
2019-03-01T07:46:52.624Z,6.60
2019-03-01T07:49:16.873Z,6.53
2019-03-01T07:51:46.345Z,7.80
2019-03-01T07:54:16.885Z,7.87
2019-03-01T07:56:47.097Z,7.87
2019-03-01T07:59:16.604Z,8.43
2019-03-01T08:01:45.889Z,6.80
2019-03-01T08:04:15.455Z,6.17
2019-03-01T08:06:45.585Z,7.73
2019-03-01T08:09:16.319Z,7.30
2019-03-01T08:11:45.796Z,7.83
2019-03-01T08:14:15.365Z,7.15
2019-03-01T08:16:45.395Z,7.33
2019-03-01T08:19:16.174Z,8.40
2019-03-01T08:21:49.706Z,7.80
2019-03-01T08:24:17.372Z,6.75
2019-03-01T08:26:46.818Z,6.00
2019-03-01T08:29:16.288Z,6.57
2019-03-01T08:31:45.746Z,5.67
2019-03-01T08:34:17.726Z,6.97
2019-03-01T08:36:46.388Z,7.30
2019-03-01T08:39:15.843Z,6.27
2019-03-01T08:41:45.471Z,6.90
2019-03-01T08:44:14.926Z,6.77
2019-03-01T08:46:45.451Z,8.57
2019-03-01T08:49:15.586Z,7.13
2019-03-01T08:51:45.186Z,6.90
2019-03-01T08:54:14.647Z,7.10
2019-03-01T08:56:46.439Z,7.33
2019-03-01T08:59:17.452Z,7.50
2019-03-01T09:01:46.714Z,7.70
2019-03-01T09:04:17.625Z,7.20
2019-03-01T09:06:47.480Z,7.03
2019-03-01T09:12:51.374Z,7.03
2019-03-01T09:15:20.821Z,6.35
2019-03-01T09:17:50.357Z,6.23
2019-03-01T09:20:20.051Z,6.57
2019-03-01T09:22:49.786Z,6.37
2019-03-01T09:25:19.245Z,6.10
2019-03-01T09:27:48.710Z,6.00
2019-03-01T09:30:21.048Z,6.17
2019-03-01T09:32:50.948Z,5.63
2019-03-01T09:35:23.110Z,6.27
2019-03-01T09:37:52.603Z,6.57
2019-03-01T09:40:22.206Z,5.28
2019-03-01T09:42:52.337Z,6.40
2019-03-01T09:45:22.047Z,6.23
2019-03-01T09:47:51.596Z,5.15
2019-03-01T09:50:21.192Z,6.63
2019-03-01T09:52:50.828Z,5.73
2019-03-01T09:55:20.343Z,5.50
2019-03-01T09:57:49.823Z,5.15
2019-03-01T10:00:25.148Z,5.87
2019-03-01T10:02:54.633Z,6.28
2019-03-01T10:05:24.187Z,5.40
2019-03-01T10:07:53.867Z,5.57
2019-03-01T10:10:26.296Z,6.40
2019-03-01T10:12:55.925Z,5.70
2019-03-01T10:15:25.521Z,5.00
2019-03-01T10:17:55.113Z,4.80
2019-03-01T10:20:26.080Z,5.10
2019-03-01T10:22:55.787Z,5.67
2019-03-01T10:25:26.392Z,4.80
2019-03-01T10:27:55.876Z,5.37
2019-03-01T10:30:26.764Z,5.47
2019-03-01T10:32:56.478Z,4.60
2019-03-01T10:35:26.009Z,4.40
2019-03-01T10:37:55.552Z,4.33
2019-03-01T10:40:27.329Z,4.67
2019-03-01T10:42:56.774Z,4.10
2019-03-01T10:45:27.997Z,3.15
2019-03-01T10:47:58.508Z,4.07
2019-03-01T10:50:28.147Z,3.23
2019-03-01T10:52:57.605Z,4.10
2019-03-01T10:55:27.159Z,3.42
2019-03-01T10:57:56.673Z,3.60
2019-03-01T11:00:27.705Z,3.87
2019-03-01T11:02:58.023Z,4.03
2019-03-01T11:05:28.038Z,3.20
2019-03-01T11:07:57.830Z,4.03
2019-03-01T11:10:30.552Z,3.63
2019-03-01T11:13:00.192Z,3.97
2019-03-01T11:15:29.920Z,3.30
2019-03-01T11:17:59.592Z,3.45
2019-03-01T11:20:29.391Z,4.80
2019-03-01T11:22:58.947Z,3.60
2019-03-01T11:25:28.414Z,3.25
2019-03-01T11:27:58.024Z,3.20
2019-03-01T11:30:30.633Z,3.60
2019-03-01T11:33:00.248Z,3.13
2019-03-01T11:35:29.902Z,3.33
2019-03-01T11:37:59.490Z,3.60
2019-03-01T11:40:30.817Z,3.80
2019-03-01T11:43:01.347Z,2.83
2019-03-01T11:45:32.817Z,3.40
2019-03-01T11:48:02.709Z,3.80
2019-03-01T11:50:32.258Z,4.17
2019-03-01T11:53:02.103Z,2.80
2019-03-01T11:55:31.734Z,3.07
2019-03-01T11:58:01.455Z,3.80
2019-03-01T12:00:31.002Z,3.98
2019-03-01T12:03:00.561Z,4.00
2019-03-01T12:05:30.234Z,4.90
2019-03-01T12:07:59.709Z,5.00
2019-03-01T12:10:30.804Z,5.00
2019-03-01T12:13:00.462Z,5.23
2019-03-01T12:15:29.914Z,5.87
2019-03-01T12:17:59.568Z,5.13
2019-03-01T12:20:31.259Z,5.40
2019-03-01T12:23:01.028Z,5.40
2019-03-01T12:25:30.755Z,6.57
2019-03-01T12:28:00.355Z,5.20
2019-03-01T12:30:29.869Z,6.58
2019-03-01T12:32:59.561Z,7.03
2019-03-01T12:35:29.037Z,7.60
2019-03-01T12:37:58.505Z,8.17
2019-03-01T12:40:29.108Z,7.57
2019-03-01T12:42:58.962Z,10.18
2019-03-01T12:45:28.555Z,12.40
2019-03-01T12:47:58.042Z,14.17
2019-03-01T12:50:27.645Z,16.70
2019-03-01T12:52:57.243Z,17.60
2019-03-01T12:55:30.276Z,20.27
2019-03-01T12:57:59.951Z,20.90
2019-03-01T13:00:31.139Z,22.82
2019-03-01T13:03:00.842Z,24.67
2019-03-01T13:05:30.670Z,26.30
2019-03-01T13:08:00.273Z,26.07
2019-03-01T13:10:32.393Z,29.18
2019-03-01T13:13:03.077Z,27.45
2019-03-01T13:15:33.307Z,28.33
2019-03-01T13:18:03.635Z,32.07
2019-03-01T13:20:33.677Z,32.43
2019-03-01T13:23:06.025Z,32.25
2019-03-01T13:25:35.852Z,31.85
2019-03-01T13:28:05.442Z,31.03
2019-03-01T13:30:35.688Z,30.20
2019-03-01T13:33:06.338Z,31.80
2019-03-01T13:35:35.757Z,32.97
2019-03-01T13:38:05.279Z,30.57
2019-03-01T13:40:34.801Z,30.10
2019-03-01T13:43:04.288Z,29.70
2019-03-01T13:45:33.842Z,29.90
2019-03-01T13:48:03.462Z,30.37
2019-03-01T13:50:33.134Z,31.40
2019-03-01T13:53:02.688Z,31.53
2019-03-01T13:55:32.275Z,30.40
2019-03-01T13:58:02.425Z,29.93
2019-03-01T14:00:32.169Z,31.90
2019-03-01T14:03:01.667Z,31.62
2019-03-01T14:05:31.309Z,33.48
2019-03-01T14:08:08.723Z,33.57
2019-03-01T14:10:32.141Z,31.90
2019-03-01T14:13:01.764Z,33.20
2019-03-01T14:16:11.275Z,33.33
2019-03-01T14:18:40.886Z,32.50
2019-03-01T14:21:10.270Z,34.90
2019-03-01T14:23:39.726Z,34.67
2019-03-01T14:26:09.513Z,34.93
2019-03-01T14:28:41.247Z,35.20
2019-03-01T14:31:12.153Z,35.17
2019-03-01T14:33:41.326Z,33.35
2019-03-01T14:36:10.872Z,34.17
2019-03-01T14:38:41.100Z,34.00
2019-03-01T14:41:10.836Z,33.50
2019-03-01T14:43:40.551Z,35.77
2019-03-01T14:46:10.318Z,32.83
2019-03-01T14:48:43.003Z,33.60
2019-03-01T14:51:11.825Z,37.40
2019-03-01T14:53:41.938Z,35.50
2019-03-01T14:56:14.735Z,32.23
2019-03-01T14:58:47.326Z,32.50
2019-03-01T15:01:23.278Z,31.47
2019-03-01T15:03:53.668Z,31.37
2019-03-01T15:06:22.537Z,30.20
2019-03-01T15:08:52.141Z,30.70
2019-03-01T15:11:22.107Z,30.00
2019-03-01T15:13:51.782Z,31.17
2019-03-01T15:16:21.463Z,30.37
2019-03-01T15:18:51.158Z,30.90
2019-03-01T15:21:20.909Z,30.70
2019-03-01T15:23:50.549Z,30.47
2019-03-01T15:26:23.110Z,29.93
2019-03-01T15:28:55.205Z,28.50
2019-03-01T15:31:23.026Z,30.13
2019-03-01T15:33:52.537Z,29.82
2019-03-01T15:36:21.844Z,29.85
2019-03-01T15:38:51.445Z,32.07
2019-03-01T15:41:21.238Z,30.65
2019-03-01T15:43:50.960Z,32.23
2019-03-01T15:46:20.763Z,29.82
2019-03-01T15:48:50.290Z,29.83
2019-03-01T15:51:19.972Z,28.10
2019-03-01T15:53:49.237Z,27.67
2019-03-01T15:56:18.862Z,30.00
2019-03-01T15:58:48.509Z,29.20
2019-03-01T16:01:17.831Z,33.60
2019-03-01T16:03:47.322Z,34.60
2019-03-01T16:06:20.056Z,32.38
2019-03-01T16:08:49.101Z,34.80
2019-03-01T16:11:18.731Z,34.00
2019-03-01T16:13:49.381Z,33.60
2019-03-01T16:16:19.008Z,33.73
2019-03-01T16:18:48.626Z,31.33
2019-03-01T16:21:18.208Z,31.30
2019-03-01T16:23:47.661Z,31.80
2019-03-01T16:26:17.126Z,31.37
2019-03-01T16:28:46.806Z,30.90
2019-03-01T16:31:16.335Z,30.80
2019-03-01T16:33:45.915Z,28.77
2019-03-01T16:36:17.116Z,31.00
2019-03-01T16:38:48.776Z,31.12
2019-03-01T16:41:18.047Z,29.37
2019-03-01T16:43:47.657Z,28.90
2019-03-01T16:46:17.056Z,28.25
2019-03-01T16:48:48.840Z,29.13
2019-03-01T16:51:19.519Z,26.70
2019-03-01T16:53:49.203Z,25.70
2019-03-01T16:56:18.666Z,26.83
2019-03-01T16:58:48.391Z,28.30
2019-03-01T17:01:17.668Z,27.70
2019-03-01T17:03:49.555Z,27.63
2019-03-01T17:06:18.403Z,25.80
2019-03-01T17:08:48.167Z,25.88
2019-03-01T17:11:17.652Z,25.30
2019-03-01T17:13:47.549Z,26.57
2019-03-01T17:16:20.451Z,28.13
2019-03-01T17:18:48.719Z,25.87
2019-03-01T17:21:18.275Z,25.87
2019-03-01T17:23:47.762Z,25.90
2019-03-01T17:26:17.369Z,24.33
2019-03-01T17:28:46.857Z,24.53
2019-03-01T17:31:16.442Z,24.07
2019-03-01T17:33:48.820Z,22.60
2019-03-01T17:36:18.081Z,24.03
2019-03-01T17:38:47.562Z,23.47
2019-03-01T17:41:17.206Z,23.60
2019-03-01T17:43:46.703Z,24.17
2019-03-01T17:46:16.263Z,22.53
2019-03-01T17:48:45.824Z,22.35
2019-03-01T17:51:18.225Z,22.80
2019-03-01T17:53:47.306Z,23.20
2019-03-01T17:56:18.654Z,21.17
2019-03-01T17:58:48.169Z,22.97
2019-03-01T18:01:17.639Z,21.87
2019-03-01T18:03:47.303Z,21.33
2019-03-01T18:06:17.831Z,19.95
2019-03-01T18:08:47.345Z,20.52
2019-03-01T18:11:16.948Z,19.15
2019-03-01T18:13:46.722Z,18.60
2019-03-01T18:16:16.327Z,18.80
2019-03-01T18:18:49.112Z,16.93
2019-03-01T18:21:17.030Z,18.10
2019-03-01T18:23:46.515Z,15.83
2019-03-01T18:26:16.115Z,17.37
2019-03-01T18:28:45.624Z,17.05
2019-03-01T18:31:15.199Z,17.77
2019-03-01T18:33:44.780Z,17.53
2019-03-01T18:36:14.593Z,17.87
2019-03-01T18:38:44.277Z,16.93
2019-03-01T18:41:13.932Z,16.63
2019-03-01T18:43:45.866Z,16.33
2019-03-01T18:46:17.689Z,14.30
2019-03-01T18:48:45.885Z,15.33
2019-03-01T18:51:15.395Z,15.23
2019-03-01T18:53:45.578Z,14.43
2019-03-01T18:56:15.141Z,14.63
2019-03-01T18:58:45.709Z,15.03
2019-03-01T19:01:15.897Z,14.20
2019-03-01T19:03:45.328Z,13.30
2019-03-01T19:06:16.207Z,13.03
2019-03-01T19:08:45.823Z,12.37
2019-03-01T19:11:15.545Z,13.75
2019-03-01T19:13:45.648Z,13.28
2019-03-01T19:16:25.384Z,13.27
2019-03-01T19:18:56.396Z,12.43
2019-03-01T19:21:26.381Z,13.40
2019-03-01T19:23:55.915Z,13.10
2019-03-01T19:26:25.492Z,11.50
2019-03-01T19:28:55.204Z,13.25
2019-03-01T19:31:25.391Z,12.05
2019-03-01T19:33:54.940Z,11.90
2019-03-01T19:36:24.346Z,10.75
2019-03-01T19:38:56.829Z,9.13
2019-03-01T19:41:27.159Z,9.67
2019-03-01T19:43:57.856Z,10.97
2019-03-01T19:46:27.526Z,11.17
2019-03-01T19:48:57.743Z,12.10
2019-03-01T19:51:27.415Z,12.10
2019-03-01T19:53:57.444Z,13.13
2019-03-01T19:56:28.127Z,13.70
2019-03-01T19:58:59.332Z,14.30
2019-03-01T20:01:29.169Z,14.43
2019-03-01T20:03:58.636Z,14.80
2019-03-01T20:06:28.180Z,15.73
2019-03-01T20:08:57.697Z,14.25
2019-03-01T20:11:27.533Z,15.77
2019-03-01T20:13:57.121Z,16.53
2019-03-01T20:16:26.688Z,17.27
2019-03-01T20:18:56.165Z,18.15
2019-03-01T20:21:25.645Z,17.60
2019-03-01T20:23:56.898Z,18.17
2019-03-01T20:26:27.951Z,17.50
2019-03-01T20:29:01.065Z,18.23
2019-03-01T20:31:30.778Z,18.90
2019-03-01T20:34:02.724Z,19.20
2019-03-01T20:36:32.350Z,16.50
2019-03-01T20:39:01.977Z,15.50
2019-03-01T20:41:31.148Z,15.23
2019-03-01T20:44:01.216Z,14.00
2019-03-01T20:46:30.775Z,12.97
2019-03-01T20:49:03.880Z,13.73
2019-03-01T20:51:34.214Z,13.60
2019-03-01T20:54:03.706Z,12.93
2019-03-01T20:56:33.167Z,12.47
2019-03-01T20:59:02.731Z,12.17
2019-03-01T21:01:33.674Z,14.05
2019-03-01T21:04:04.884Z,13.25
2019-03-01T21:06:37.357Z,13.45
2019-03-01T21:09:27.167Z,12.50
2019-03-01T21:11:57.814Z,13.27
2019-03-01T21:14:27.915Z,12.07
2019-03-01T21:16:57.435Z,13.03
2019-03-01T21:19:26.834Z,13.87
2019-03-01T21:21:56.348Z,13.80
2019-03-01T21:24:26.557Z,13.08
2019-03-01T21:26:56.137Z,14.60
2019-03-01T21:29:25.618Z,13.83
2019-03-01T21:31:55.216Z,14.33
2019-03-01T21:34:24.881Z,15.57
2019-03-01T21:36:54.378Z,14.80
2019-03-01T21:39:24.085Z,14.53
2019-03-01T21:41:54.680Z,15.15
2019-03-01T21:44:24.207Z,15.13
2019-03-01T21:46:53.680Z,16.60
2019-03-01T21:49:23.209Z,15.43
2019-03-01T21:51:55.229Z,16.43
2019-03-01T21:54:24.561Z,16.00
2019-03-01T21:56:56.798Z,16.83
2019-03-01T21:59:25.068Z,16.53
2019-03-01T22:01:54.739Z,16.85
2019-03-01T22:04:24.310Z,16.95
2019-03-01T22:06:56.032Z,17.23
2019-03-01T22:09:25.541Z,17.10
2019-03-01T22:11:55.178Z,16.50
2019-03-01T22:14:24.580Z,18.12
2019-03-01T22:16:54.135Z,16.60
2019-03-01T22:19:23.646Z,16.60
2019-03-01T22:21:54.639Z,17.12
2019-03-01T22:24:26.496Z,17.50
2019-03-01T22:26:55.460Z,17.73
2019-03-01T22:29:25.053Z,17.97
2019-03-01T22:31:54.598Z,17.40
2019-03-01T22:34:24.174Z,17.92
2019-03-01T22:36:53.798Z,18.50
2019-03-01T22:39:23.298Z,18.73
2019-03-01T22:41:52.863Z,17.00
2019-03-01T22:44:22.400Z,18.85
2019-03-01T22:46:52.049Z,18.30
2019-03-01T22:49:21.415Z,17.80
2019-03-01T22:51:53.012Z,18.37
2019-03-01T22:54:22.259Z,17.70
2019-03-01T22:56:51.971Z,17.87
2019-03-01T22:59:21.598Z,17.50
2019-03-01T23:01:51.391Z,17.00
2019-03-01T23:04:20.929Z,16.12
2019-03-01T23:06:51.495Z,17.23
2019-03-01T23:09:22.051Z,16.30
2019-03-01T23:11:51.693Z,15.80
2019-03-01T23:14:21.269Z,16.67
2019-03-01T23:16:54.422Z,16.90
2019-03-01T23:19:22.464Z,15.38
2019-03-01T23:21:52.403Z,16.60
2019-03-01T23:24:21.571Z,16.77
2019-03-01T23:26:53.615Z,17.37
2019-03-01T23:29:25.992Z,17.37
2019-03-01T23:31:55.567Z,19.23
2019-03-01T23:34:25.197Z,17.10
2019-03-01T23:36:54.664Z,16.87
2019-03-01T23:39:24.653Z,16.93
2019-03-01T23:41:54.859Z,16.70
2019-03-01T23:44:24.338Z,17.97
2019-03-01T23:46:53.810Z,17.40
2019-03-01T23:49:24.009Z,17.65
2019-03-01T23:51:54.506Z,18.15
2019-03-01T23:54:24.055Z,17.13
2019-03-01T23:56:53.515Z,18.17
2019-03-01T23:59:23.793Z,16.83
